sensor_id;sensor_type;location;lat;lon;timestamp;temperature;humidity
64638;HTU21D;51049;45.046;38.950;2023-03-23T00:01:43;11.66;66.94
64638;HTU21D;51049;45.046;38.950;2023-03-23T00:04:16;11.63;66.97
64638;HTU21D;51049;45.046;38.950;2023-03-23T00:06:49;11.60;66.99
64638;HTU21D;51049;45.046;38.950;2023-03-23T00:09:22;11.58;67.02
64638;HTU21D;51049;45.046;38.950;2023-03-23T00:11:50;11.56;67.03
64638;HTU21D;51049;45.046;38.950;2023-03-23T00:14:21;11.54;67.05
64638;HTU21D;51049;45.046;38.950;2023-03-23T00:16:48;11.52;67.08
64638;HTU21D;51049;45.046;38.950;2023-03-23T00:19:34;11.51;67.07
64638;HTU21D;51049;45.046;38.950;2023-03-23T00:22:13;11.49;67.07
64638;HTU21D;51049;45.046;38.950;2023-03-23T00:24:50;11.48;67.09
64638;HTU21D;51049;45.046;38.950;2023-03-23T00:27:38;11.45;67.07
64638;HTU21D;51049;45.046;38.950;2023-03-23T00:30:12;11.45;67.07
64638;HTU21D;51049;45.046;38.950;2023-03-23T00:32:50;11.43;67.07
64638;HTU21D;51049;45.046;38.950;2023-03-23T00:35:30;11.42;67.10
64638;HTU21D;51049;45.046;38.950;2023-03-23T00:38:10;11.39;67.13
64638;HTU21D;51049;45.046;38.950;2023-03-23T00:40:44;11.37;67.14
64638;HTU21D;51049;45.046;38.950;2023-03-23T00:43:13;11.36;67.17
64638;HTU21D;51049;45.046;38.950;2023-03-23T00:46:01;11.32;67.17
64638;HTU21D;51049;45.046;38.950;2023-03-23T00:48:35;11.30;67.20
64638;HTU21D;51049;45.046;38.950;2023-03-23T00:51:10;11.28;67.21
64638;HTU21D;51049;45.046;38.950;2023-03-23T00:53:51;11.26;67.24
64638;HTU21D;51049;45.046;38.950;2023-03-23T00:56:24;11.24;67.25
64638;HTU21D;51049;45.046;38.950;2023-03-23T00:58:55;11.20;67.27
64638;HTU21D;51049;45.046;38.950;2023-03-23T01:01:35;11.18;67.27
64638;HTU21D;51049;45.046;38.950;2023-03-23T01:04:06;11.17;67.29
64638;HTU21D;51049;45.046;38.950;2023-03-23T01:06:48;11.14;67.31
64638;HTU21D;51049;45.046;38.950;2023-03-23T01:09:22;11.12;67.33
64638;HTU21D;51049;45.046;38.950;2023-03-23T01:11:50;11.10;67.34
64638;HTU21D;51049;45.046;38.950;2023-03-23T01:14:35;11.08;67.35
64638;HTU21D;51049;45.046;38.950;2023-03-23T01:17:12;11.03;67.39
64638;HTU21D;51049;45.046;38.950;2023-03-23T01:19:41;11.03;67.42
64638;HTU21D;51049;45.046;38.950;2023-03-23T01:22:15;11.03;67.41
64638;HTU21D;51049;45.046;38.950;2023-03-23T01:28:35;10.98;67.40
64638;HTU21D;51049;45.046;38.950;2023-03-23T01:31:10;10.97;67.41
64638;HTU21D;51049;45.046;38.950;2023-03-23T01:33:56;10.96;67.43
64638;HTU21D;51049;45.046;38.950;2023-03-23T01:36:54;10.95;67.49
64638;HTU21D;51049;45.046;38.950;2023-03-23T01:39:27;10.95;67.46
64638;HTU21D;51049;45.046;38.950;2023-03-23T01:42:04;10.95;67.40
64638;HTU21D;51049;45.046;38.950;2023-03-23T01:47:09;10.97;67.40
64638;HTU21D;51049;45.046;38.950;2023-03-23T01:50:04;10.98;67.39
64638;HTU21D;51049;45.046;38.950;2023-03-23T01:52:33;11.00;67.39
64638;HTU21D;51049;45.046;38.950;2023-03-23T01:55:09;11.01;67.40
64638;HTU21D;51049;45.046;38.950;2023-03-23T01:57:41;11.02;67.39
64638;HTU21D;51049;45.046;38.950;2023-03-23T02:06:59;11.09;67.35
64638;HTU21D;51049;45.046;38.950;2023-03-23T02:09:32;11.10;67.34
64638;HTU21D;51049;45.046;38.950;2023-03-23T02:12:05;11.11;67.34
64638;HTU21D;51049;45.046;38.950;2023-03-23T02:14:33;11.13;67.36
64638;HTU21D;51049;45.046;38.950;2023-03-23T02:17:40;11.14;67.37
64638;HTU21D;51049;45.046;38.950;2023-03-23T02:20:34;11.14;67.35
64638;HTU21D;51049;45.046;38.950;2023-03-23T02:26:38;11.16;67.36
64638;HTU21D;51049;45.046;38.950;2023-03-23T02:35:36;11.17;67.36
64638;HTU21D;51049;45.046;38.950;2023-03-23T02:41:01;11.20;67.33
64638;HTU21D;51049;45.046;38.950;2023-03-23T02:46:39;11.22;67.32
64638;HTU21D;51049;45.046;38.950;2023-03-23T02:49:39;11.22;67.30
64638;HTU21D;51049;45.046;38.950;2023-03-23T02:52:33;11.24;67.33
64638;HTU21D;51049;45.046;38.950;2023-03-23T02:55:21;11.22;67.32
64638;HTU21D;51049;45.046;38.950;2023-03-23T02:58:15;11.20;67.33
64638;HTU21D;51049;45.046;38.950;2023-03-23T03:03:39;11.22;67.33
64638;HTU21D;51049;45.046;38.950;2023-03-23T03:06:54;11.22;67.36
64638;HTU21D;51049;45.046;38.950;2023-03-23T03:09:49;11.19;67.35
64638;HTU21D;51049;45.046;38.950;2023-03-23T03:15:45;11.17;67.39
64638;HTU21D;51049;45.046;38.950;2023-03-23T03:18:25;11.15;67.39
64638;HTU21D;51049;45.046;38.950;2023-03-23T03:21:12;11.14;67.41
64638;HTU21D;51049;45.046;38.950;2023-03-23T03:24:00;11.12;67.44
64638;HTU21D;51049;45.046;38.950;2023-03-23T03:26:40;11.09;67.46
64638;HTU21D;51049;45.046;38.950;2023-03-23T03:33:18;11.03;67.49
64638;HTU21D;51049;45.046;38.950;2023-03-23T03:36:05;11.00;67.52
64638;HTU21D;51049;45.046;38.950;2023-03-23T03:38:48;10.97;67.56
64638;HTU21D;51049;45.046;38.950;2023-03-23T03:41:19;10.94;67.60
64638;HTU21D;51049;45.046;38.950;2023-03-23T03:43:52;10.92;67.65
64638;HTU21D;51049;45.046;38.950;2023-03-23T03:46:23;10.88;67.68
64638;HTU21D;51049;45.046;38.950;2023-03-23T03:49:10;10.87;67.72
64638;HTU21D;51049;45.046;38.950;2023-03-23T03:51:41;10.86;67.73
64638;HTU21D;51049;45.046;38.950;2023-03-23T03:54:23;10.86;67.72
64638;HTU21D;51049;45.046;38.950;2023-03-23T03:56:49;10.85;67.75
64638;HTU21D;51049;45.046;38.950;2023-03-23T03:59:46;10.87;67.75
64638;HTU21D;51049;45.046;38.950;2023-03-23T04:02:31;10.87;67.74
64638;HTU21D;51049;45.046;38.950;2023-03-23T04:05:10;10.88;67.73
64638;HTU21D;51049;45.046;38.950;2023-03-23T04:07:45;10.89;67.75
64638;HTU21D;51049;45.046;38.950;2023-03-23T04:10:35;10.92;67.74
64638;HTU21D;51049;45.046;38.950;2023-03-23T04:13:12;10.95;67.71
64638;HTU21D;51049;45.046;38.950;2023-03-23T04:15:57;10.97;67.68
64638;HTU21D;51049;45.046;38.950;2023-03-23T04:18:23;10.99;67.66
64638;HTU21D;51049;45.046;38.950;2023-03-23T04:20:59;11.01;67.65
64638;HTU21D;51049;45.046;38.950;2023-03-23T04:23:32;11.04;67.63
64638;HTU21D;51049;45.046;38.950;2023-03-23T04:26:14;11.07;67.60
64638;HTU21D;51049;45.046;38.950;2023-03-23T04:28:46;11.09;67.59
64638;HTU21D;51049;45.046;38.950;2023-03-23T04:31:34;11.11;67.57
64638;HTU21D;51049;45.046;38.950;2023-03-23T04:34:22;11.13;67.55
64638;HTU21D;51049;45.046;38.950;2023-03-23T04:37:06;11.14;67.54
64638;HTU21D;51049;45.046;38.950;2023-03-23T04:39:38;11.14;67.53
64638;HTU21D;51049;45.046;38.950;2023-03-23T04:42:20;11.17;67.52
64638;HTU21D;51049;45.046;38.950;2023-03-23T04:49:06;11.20;67.46
64638;HTU21D;51049;45.046;38.950;2023-03-23T04:52:13;11.24;67.46
64638;HTU21D;51049;45.046;38.950;2023-03-23T04:54:52;11.27;67.43
64638;HTU21D;51049;45.046;38.950;2023-03-23T04:57:24;11.29;67.43
64638;HTU21D;51049;45.046;38.950;2023-03-23T05:00:43;11.33;67.41
64638;HTU21D;51049;45.046;38.950;2023-03-23T05:03:21;11.38;67.39
64638;HTU21D;51049;45.046;38.950;2023-03-23T05:06:01;11.42;67.37
64638;HTU21D;51049;45.046;38.950;2023-03-23T05:08:31;11.46;67.35
64638;HTU21D;51049;45.046;38.950;2023-03-23T05:11:10;11.49;67.31
64638;HTU21D;51049;45.046;38.950;2023-03-23T05:13:41;11.54;67.28
64638;HTU21D;51049;45.046;38.950;2023-03-23T05:16:17;11.59;67.26
64638;HTU21D;51049;45.046;38.950;2023-03-23T05:18:47;11.62;67.24
64638;HTU21D;51049;45.046;38.950;2023-03-23T05:21:26;11.68;67.21
64638;HTU21D;51049;45.046;38.950;2023-03-23T05:27:22;11.79;67.10
64638;HTU21D;51049;45.046;38.950;2023-03-23T05:32:59;11.87;67.03
64638;HTU21D;51049;45.046;38.950;2023-03-23T05:35:50;11.92;67.01
64638;HTU21D;51049;45.046;38.950;2023-03-23T05:39:05;11.98;66.97
64638;HTU21D;51049;45.046;38.950;2023-03-23T05:42:08;12.05;66.94
64638;HTU21D;51049;45.046;38.950;2023-03-23T05:52:01;12.32;66.78
64638;HTU21D;51049;45.046;38.950;2023-03-23T05:54:28;12.38;66.74
64638;HTU21D;51049;45.046;38.950;2023-03-23T05:56:54;12.43;66.73
64638;HTU21D;51049;45.046;38.950;2023-03-23T05:59:41;12.52;66.67
64638;HTU21D;51049;45.046;38.950;2023-03-23T06:02:14;12.59;66.59
64638;HTU21D;51049;45.046;38.950;2023-03-23T06:04:42;12.66;66.56
64638;HTU21D;51049;45.046;38.950;2023-03-23T06:07:25;12.75;66.50
64638;HTU21D;51049;45.046;38.950;2023-03-23T06:13:01;12.92;66.41
64638;HTU21D;51049;45.046;38.950;2023-03-23T06:15:49;13.01;66.33
64638;HTU21D;51049;45.046;38.950;2023-03-23T06:18:41;13.11;66.27
64638;HTU21D;51049;45.046;38.950;2023-03-23T06:25:19;13.27;66.09
64638;HTU21D;51049;45.046;38.950;2023-03-23T06:27:55;13.35;66.04
64638;HTU21D;51049;45.046;38.950;2023-03-23T06:30:26;13.41;65.98
64638;HTU21D;51049;45.046;38.950;2023-03-23T06:32:58;13.51;65.96
64638;HTU21D;51049;45.046;38.950;2023-03-23T06:35:43;13.62;65.90
64638;HTU21D;51049;45.046;38.950;2023-03-23T06:38:20;13.73;65.82
64638;HTU21D;51049;45.046;38.950;2023-03-23T06:40:52;13.85;65.75
64638;HTU21D;51049;45.046;38.950;2023-03-23T06:43:18;13.97;65.62
64638;HTU21D;51049;45.046;38.950;2023-03-23T06:45:59;14.07;65.45
64638;HTU21D;51049;45.046;38.950;2023-03-23T06:48:35;14.12;65.33
64638;HTU21D;51049;45.046;38.950;2023-03-23T06:51:05;14.19;65.33
64638;HTU21D;51049;45.046;38.950;2023-03-23T06:53:36;14.25;65.33
64638;HTU21D;51049;45.046;38.950;2023-03-23T06:56:07;14.32;65.25
64638;HTU21D;51049;45.046;38.950;2023-03-23T06:58:36;14.40;65.15
64638;HTU21D;51049;45.046;38.950;2023-03-23T07:04:39;14.54;64.88
64638;HTU21D;51049;45.046;38.950;2023-03-23T07:07:11;14.60;64.90
64638;HTU21D;51049;45.046;38.950;2023-03-23T07:09:49;14.68;64.85
64638;HTU21D;51049;45.046;38.950;2023-03-23T07:12:36;14.77;64.76
64638;HTU21D;51049;45.046;38.950;2023-03-23T07:15:06;14.84;64.68
64638;HTU21D;51049;45.046;38.950;2023-03-23T07:18:01;14.96;64.65
64638;HTU21D;51049;45.046;38.950;2023-03-23T07:20:46;15.10;64.48
64638;HTU21D;51049;45.046;38.950;2023-03-23T07:23:28;15.23;64.30
64638;HTU21D;51049;45.046;38.950;2023-03-23T07:26:28;15.32;64.28
64638;HTU21D;51049;45.046;38.950;2023-03-23T07:29:09;15.44;64.16
64638;HTU21D;51049;45.046;38.950;2023-03-23T07:31:40;15.56;64.01
64638;HTU21D;51049;45.046;38.950;2023-03-23T07:34:10;15.68;63.92
64638;HTU21D;51049;45.046;38.950;2023-03-23T07:36:49;15.77;63.76
64638;HTU21D;51049;45.046;38.950;2023-03-23T07:39:20;15.85;63.67
64638;HTU21D;51049;45.046;38.950;2023-03-23T07:41:46;15.90;63.53
64638;HTU21D;51049;45.046;38.950;2023-03-23T07:44:25;15.91;63.50
64638;HTU21D;51049;45.046;38.950;2023-03-23T07:46:55;15.97;63.51
64638;HTU21D;51049;45.046;38.950;2023-03-23T07:49:29;16.04;63.44
64638;HTU21D;51049;45.046;38.950;2023-03-23T07:52:11;16.12;63.42
64638;HTU21D;51049;45.046;38.950;2023-03-23T07:54:39;16.18;63.21
64638;HTU21D;51049;45.046;38.950;2023-03-23T07:57:28;16.29;63.20
64638;HTU21D;51049;45.046;38.950;2023-03-23T08:00:35;16.51;63.16
64638;HTU21D;51049;45.046;38.950;2023-03-23T08:03:15;16.75;62.82
64638;HTU21D;51049;45.046;38.950;2023-03-23T08:06:13;16.98;62.57
64638;HTU21D;51049;45.046;38.950;2023-03-23T08:09:10;17.15;62.31
64638;HTU21D;51049;45.046;38.950;2023-03-23T08:12:12;17.30;62.18
64638;HTU21D;51049;45.046;38.950;2023-03-23T08:15:19;17.43;61.91
64638;HTU21D;51049;45.046;38.950;2023-03-23T08:18:37;17.41;61.87
64638;HTU21D;51049;45.046;38.950;2023-03-23T08:24:17;17.31;61.86
64638;HTU21D;51049;45.046;38.950;2023-03-23T08:27:15;17.30;61.88
64638;HTU21D;51049;45.046;38.950;2023-03-23T08:33:32;17.58;61.78
64638;HTU21D;51049;45.046;38.950;2023-03-23T08:36:18;17.80;61.45
64638;HTU21D;51049;45.046;38.950;2023-03-23T08:39:16;17.95;61.10
64638;HTU21D;51049;45.046;38.950;2023-03-23T08:42:24;18.08;61.04
64638;HTU21D;51049;45.046;38.950;2023-03-23T08:45:56;18.13;60.76
64638;HTU21D;51049;45.046;38.950;2023-03-23T08:53:21;18.33;60.60
64638;HTU21D;51049;45.046;38.950;2023-03-23T08:57:20;18.36;60.63
64638;HTU21D;51049;45.046;38.950;2023-03-23T08:59:33;18.41;60.47
64638;HTU21D;51049;45.046;38.950;2023-03-23T09:02:22;18.50;60.43
64638;HTU21D;51049;45.046;38.950;2023-03-23T09:05:14;18.52;60.17
64638;HTU21D;51049;45.046;38.950;2023-03-23T09:08:34;18.55;60.18
64638;HTU21D;51049;45.046;38.950;2023-03-23T09:11:07;18.65;60.09
64638;HTU21D;51049;45.046;38.950;2023-03-23T09:17:18;18.95;59.90
64638;HTU21D;51049;45.046;38.950;2023-03-23T09:19:47;18.99;59.44
64638;HTU21D;51049;45.046;38.950;2023-03-23T09:22:52;19.02;59.50
64638;HTU21D;51049;45.046;38.950;2023-03-23T09:28:30;19.07;59.56
64638;HTU21D;51049;45.046;38.950;2023-03-23T09:31:13;19.10;59.43
64638;HTU21D;51049;45.046;38.950;2023-03-23T09:33:45;19.09;59.21
64638;HTU21D;51049;45.046;38.950;2023-03-23T09:36:15;19.08;59.16
64638;HTU21D;51049;45.046;38.950;2023-03-23T09:42:41;18.97;59.43
64638;HTU21D;51049;45.046;38.950;2023-03-23T09:54:23;18.36;59.48
64638;HTU21D;51049;45.046;38.950;2023-03-23T09:57:39;18.15;59.75
64638;HTU21D;51049;45.046;38.950;2023-03-23T10:00:25;18.05;59.84
64638;HTU21D;51049;45.046;38.950;2023-03-23T10:03:21;17.95;59.97
64638;HTU21D;51049;45.046;38.950;2023-03-23T10:06:31;17.89;60.08
64638;HTU21D;51049;45.046;38.950;2023-03-23T10:20:56;17.58;60.14
64638;HTU21D;51049;45.046;38.950;2023-03-23T10:23:58;17.50;60.09
64638;HTU21D;51049;45.046;38.950;2023-03-23T10:29:23;17.37;60.30
64638;HTU21D;51049;45.046;38.950;2023-03-23T10:36:10;17.38;60.38
64638;HTU21D;51049;45.046;38.950;2023-03-23T10:39:20;17.46;60.35
64638;HTU21D;51049;45.046;38.950;2023-03-23T10:44:48;17.59;60.19
64638;HTU21D;51049;45.046;38.950;2023-03-23T10:47:26;17.67;60.11
64638;HTU21D;51049;45.046;38.950;2023-03-23T10:50:25;17.72;60.02
64638;HTU21D;51049;45.046;38.950;2023-03-23T10:57:00;17.75;59.94
64638;HTU21D;51049;45.046;38.950;2023-03-23T11:07:26;17.78;60.11
64638;HTU21D;51049;45.046;38.950;2023-03-23T11:10:46;17.84;60.12
64638;HTU21D;51049;45.046;38.950;2023-03-23T11:17:43;17.85;60.02
64638;HTU21D;51049;45.046;38.950;2023-03-23T11:20:52;17.82;60.08
64638;HTU21D;51049;45.046;38.950;2023-03-23T11:24:27;17.84;60.22
64638;HTU21D;51049;45.046;38.950;2023-03-23T11:26:58;17.88;60.14
64638;HTU21D;51049;45.046;38.950;2023-03-23T11:29:52;17.88;60.11
64638;HTU21D;51049;45.046;38.950;2023-03-23T11:32:28;17.85;60.07
64638;HTU21D;51049;45.046;38.950;2023-03-23T11:35:02;17.81;60.09
64638;HTU21D;51049;45.046;38.950;2023-03-23T11:37:48;17.76;60.14
64638;HTU21D;51049;45.046;38.950;2023-03-23T11:41:08;17.67;60.25
64638;HTU21D;51049;45.046;38.950;2023-03-23T11:43:44;17.63;60.29
64638;HTU21D;51049;45.046;38.950;2023-03-23T11:52:22;17.50;60.29
64638;HTU21D;51049;45.046;38.950;2023-03-23T11:55:02;17.47;60.33
64638;HTU21D;51049;45.046;38.950;2023-03-23T11:58:06;17.44;60.36
64638;HTU21D;51049;45.046;38.950;2023-03-23T12:00:33;17.41;60.37
64638;HTU21D;51049;45.046;38.950;2023-03-23T12:03:07;17.40;60.40
64638;HTU21D;51049;45.046;38.950;2023-03-23T12:06:06;17.38;60.42
64638;HTU21D;51049;45.046;38.950;2023-03-23T12:09:00;17.35;60.42
64638;HTU21D;51049;45.046;38.950;2023-03-23T12:14:34;17.25;60.52
64638;HTU21D;51049;45.046;38.950;2023-03-23T12:46:35;16.66;61.16
64638;HTU21D;51049;45.046;38.950;2023-03-23T12:49:52;16.64;61.21
64638;HTU21D;51049;45.046;38.950;2023-03-23T13:00:57;16.65;61.30
64638;HTU21D;51049;45.046;38.950;2023-03-23T13:06:46;16.71;61.30
64638;HTU21D;51049;45.046;38.950;2023-03-23T13:12:12;16.74;61.31
64638;HTU21D;51049;45.046;38.950;2023-03-23T13:21:41;16.81;61.37
64638;HTU21D;51049;45.046;38.950;2023-03-23T13:28:47;16.88;61.38
64638;HTU21D;51049;45.046;38.950;2023-03-23T13:31:32;16.89;61.35
64638;HTU21D;51049;45.046;38.950;2023-03-23T13:36:58;16.92;61.39
64638;HTU21D;51049;45.046;38.950;2023-03-23T13:39:27;16.94;61.41
64638;HTU21D;51049;45.046;38.950;2023-03-23T13:47:27;16.95;61.46
64638;HTU21D;51049;45.046;38.950;2023-03-23T13:50:26;16.96;61.47
64638;HTU21D;51049;45.046;38.950;2023-03-23T13:53:14;16.98;61.47
64638;HTU21D;51049;45.046;38.950;2023-03-23T13:56:17;16.99;61.50
64638;HTU21D;51049;45.046;38.950;2023-03-23T13:59:04;17.02;61.50
64638;HTU21D;51049;45.046;38.950;2023-03-23T14:01:49;17.09;61.46
64638;HTU21D;51049;45.046;38.950;2023-03-23T14:04:25;17.16;61.39
64638;HTU21D;51049;45.046;38.950;2023-03-23T14:07:27;17.25;61.35
64638;HTU21D;51049;45.046;38.950;2023-03-23T14:14:31;17.39;61.21
64638;HTU21D;51049;45.046;38.950;2023-03-23T14:17:13;17.44;61.18
64638;HTU21D;51049;45.046;38.950;2023-03-23T14:19:41;17.46;61.18
64638;HTU21D;51049;45.046;38.950;2023-03-23T14:22:26;17.48;61.17
64638;HTU21D;51049;45.046;38.950;2023-03-23T14:28:17;17.48;61.21
64638;HTU21D;51049;45.046;38.950;2023-03-23T14:30:47;17.48;61.21
64638;HTU21D;51049;45.046;38.950;2023-03-23T14:33:19;17.48;61.24
64638;HTU21D;51049;45.046;38.950;2023-03-23T14:35:48;17.50;61.28
64638;HTU21D;51049;45.046;38.950;2023-03-23T14:38:35;17.54;61.21
64638;HTU21D;51049;45.046;38.950;2023-03-23T14:41:05;17.60;61.12
64638;HTU21D;51049;45.046;38.950;2023-03-23T14:43:37;17.64;61.02
64638;HTU21D;51049;45.046;38.950;2023-03-23T14:46:08;17.67;60.93
64638;HTU21D;51049;45.046;38.950;2023-03-23T14:48:42;17.67;60.89
64638;HTU21D;51049;45.046;38.950;2023-03-23T14:51:57;17.64;60.91
64638;HTU21D;51049;45.046;38.950;2023-03-23T14:54:27;17.56;60.98
64638;HTU21D;51049;45.046;38.950;2023-03-23T14:56:55;17.49;61.01
64638;HTU21D;51049;45.046;38.950;2023-03-23T14:59:26;17.40;61.08
64638;HTU21D;51049;45.046;38.950;2023-03-23T15:01:58;17.31;61.17
64638;HTU21D;51049;45.046;38.950;2023-03-23T15:04:27;17.20;61.27
64638;HTU21D;51049;45.046;38.950;2023-03-23T15:07:09;17.08;61.37
64638;HTU21D;51049;45.046;38.950;2023-03-23T15:09:42;16.96;61.49
64638;HTU21D;51049;45.046;38.950;2023-03-23T15:12:27;16.85;61.60
64638;HTU21D;51049;45.046;38.950;2023-03-23T15:15:20;16.71;61.75
64638;HTU21D;51049;45.046;38.950;2023-03-23T15:17:56;16.58;61.90
64638;HTU21D;51049;45.046;38.950;2023-03-23T15:23:05;16.35;62.10
64638;HTU21D;51049;45.046;38.950;2023-03-23T15:25:37;16.25;62.18
64638;HTU21D;51049;45.046;38.950;2023-03-23T15:28:15;16.15;62.26
64638;HTU21D;51049;45.046;38.950;2023-03-23T15:30:51;16.05;62.36
64638;HTU21D;51049;45.046;38.950;2023-03-23T15:33:22;15.99;62.42
64638;HTU21D;51049;45.046;38.950;2023-03-23T15:35:56;15.90;62.48
64638;HTU21D;51049;45.046;38.950;2023-03-23T15:38:28;15.86;62.55
64638;HTU21D;51049;45.046;38.950;2023-03-23T15:40:59;15.83;62.57
64638;HTU21D;51049;45.046;38.950;2023-03-23T15:43:55;15.81;62.58
64638;HTU21D;51049;45.046;38.950;2023-03-23T15:46:27;15.78;62.59
64638;HTU21D;51049;45.046;38.950;2023-03-23T15:49:10;15.76;62.60
64638;HTU21D;51049;45.046;38.950;2023-03-23T15:51:37;15.75;62.60
64638;HTU21D;51049;45.046;38.950;2023-03-23T15:54:11;15.75;62.61
64638;HTU21D;51049;45.046;38.950;2023-03-23T15:56:39;15.73;62.61
64638;HTU21D;51049;45.046;38.950;2023-03-23T15:59:07;15.71;62.65
64638;HTU21D;51049;45.046;38.950;2023-03-23T16:01:35;15.69;62.66
64638;HTU21D;51049;45.046;38.950;2023-03-23T16:04:16;15.66;62.70
64638;HTU21D;51049;45.046;38.950;2023-03-23T16:06:46;15.60;62.73
64638;HTU21D;51049;45.046;38.950;2023-03-23T16:09:16;15.53;62.76
64638;HTU21D;51049;45.046;38.950;2023-03-23T16:11:45;15.48;62.80
64638;HTU21D;51049;45.046;38.950;2023-03-23T16:14:14;15.43;62.89
64638;HTU21D;51049;45.046;38.950;2023-03-23T16:16:51;15.38;62.95
64638;HTU21D;51049;45.046;38.950;2023-03-23T16:19:17;15.34;63.02
64638;HTU21D;51049;45.046;38.950;2023-03-23T16:21:45;15.33;63.08
64638;HTU21D;51049;45.046;38.950;2023-03-23T16:24:11;15.32;63.11
64638;HTU21D;51049;45.046;38.950;2023-03-23T16:26:37;15.31;63.11
64638;HTU21D;51049;45.046;38.950;2023-03-23T16:29:15;15.32;63.15
64638;HTU21D;51049;45.046;38.950;2023-03-23T16:31:41;15.33;63.12
64638;HTU21D;51049;45.046;38.950;2023-03-23T16:34:10;15.36;63.11
64638;HTU21D;51049;45.046;38.950;2023-03-23T16:36:39;15.36;63.15
64638;HTU21D;51049;45.046;38.950;2023-03-23T16:39:05;15.38;63.09
64638;HTU21D;51049;45.046;38.950;2023-03-23T16:41:31;15.41;63.10
64638;HTU21D;51049;45.046;38.950;2023-03-23T16:44:03;15.45;63.07
64638;HTU21D;51049;45.046;38.950;2023-03-23T16:46:31;15.46;63.02
64638;HTU21D;51049;45.046;38.950;2023-03-23T16:49:00;15.49;63.00
64638;HTU21D;51049;45.046;38.950;2023-03-23T16:51:29;15.52;63.00
64638;HTU21D;51049;45.046;38.950;2023-03-23T16:54:14;15.54;63.01
64638;HTU21D;51049;45.046;38.950;2023-03-23T17:00:38;15.58;62.94
64638;HTU21D;51049;45.046;38.950;2023-03-23T17:07:29;15.56;62.89
64638;HTU21D;51049;45.046;38.950;2023-03-23T17:11:00;15.54;62.93
64638;HTU21D;51049;45.046;38.950;2023-03-23T17:14:00;15.53;62.94
64638;HTU21D;51049;45.046;38.950;2023-03-23T17:17:20;15.52;62.98
64638;HTU21D;51049;45.046;38.950;2023-03-23T17:20:22;15.51;62.99
64638;HTU21D;51049;45.046;38.950;2023-03-23T17:27:00;15.44;63.00
64638;HTU21D;51049;45.046;38.950;2023-03-23T17:33:15;15.44;63.02
64638;HTU21D;51049;45.046;38.950;2023-03-23T17:35:41;15.43;63.04
64638;HTU21D;51049;45.046;38.950;2023-03-23T17:38:12;15.42;63.05
64638;HTU21D;51049;45.046;38.950;2023-03-23T17:40:38;15.41;63.06
64638;HTU21D;51049;45.046;38.950;2023-03-23T17:43:06;15.40;63.08
64638;HTU21D;51049;45.046;38.950;2023-03-23T17:45:58;15.41;63.09
64638;HTU21D;51049;45.046;38.950;2023-03-23T17:48:47;15.40;63.08
64638;HTU21D;51049;45.046;38.950;2023-03-23T17:51:20;15.37;63.10
64638;HTU21D;51049;45.046;38.950;2023-03-23T17:54:11;15.37;63.12
64638;HTU21D;51049;45.046;38.950;2023-03-23T17:56:38;15.38;63.15
64638;HTU21D;51049;45.046;38.950;2023-03-23T17:59:04;15.37;63.15
64638;HTU21D;51049;45.046;38.950;2023-03-23T18:04:29;15.36;63.15
64638;HTU21D;51049;45.046;38.950;2023-03-23T18:06:56;15.40;63.15
64638;HTU21D;51049;45.046;38.950;2023-03-23T18:09:23;15.40;63.16
64638;HTU21D;51049;45.046;38.950;2023-03-23T18:12:00;15.39;63.16
64638;HTU21D;51049;45.046;38.950;2023-03-23T18:14:32;15.40;63.13
64638;HTU21D;51049;45.046;38.950;2023-03-23T18:17:03;15.38;63.15
64638;HTU21D;51049;45.046;38.950;2023-03-23T18:19:30;15.36;63.15
64638;HTU21D;51049;45.046;38.950;2023-03-23T18:21:58;15.32;63.18
64638;HTU21D;51049;45.046;38.950;2023-03-23T18:24:26;15.31;63.20
64638;HTU21D;51049;45.046;38.950;2023-03-23T18:26:53;15.27;63.21
64638;HTU21D;51049;45.046;38.950;2023-03-23T18:29:23;15.23;63.25
64638;HTU21D;51049;45.046;38.950;2023-03-23T18:31:52;15.19;63.29
64638;HTU21D;51049;45.046;38.950;2023-03-23T18:34:24;15.14;63.35
64638;HTU21D;51049;45.046;38.950;2023-03-23T18:36:57;15.10;63.39
64638;HTU21D;51049;45.046;38.950;2023-03-23T18:39:23;15.07;63.41
64638;HTU21D;51049;45.046;38.950;2023-03-23T18:41:55;15.03;63.44
64638;HTU21D;51049;45.046;38.950;2023-03-23T18:44:34;14.99;63.45
64638;HTU21D;51049;45.046;38.950;2023-03-23T18:47:10;14.94;63.49
64638;HTU21D;51049;45.046;38.950;2023-03-23T18:49:46;14.88;63.55
64638;HTU21D;51049;45.046;38.950;2023-03-23T18:52:25;14.85;63.60
64638;HTU21D;51049;45.046;38.950;2023-03-23T18:55:00;14.79;63.63
64638;HTU21D;51049;45.046;38.950;2023-03-23T18:57:41;14.75;63.66
64638;HTU21D;51049;45.046;38.950;2023-03-23T19:00:12;14.71;63.72
64638;HTU21D;51049;45.046;38.950;2023-03-23T19:02:50;14.67;63.75
64638;HTU21D;51049;45.046;38.950;2023-03-23T19:05:20;14.66;63.77
64638;HTU21D;51049;45.046;38.950;2023-03-23T19:07:46;14.62;63.79
64638;HTU21D;51049;45.046;38.950;2023-03-23T19:10:38;14.60;63.81
64638;HTU21D;51049;45.046;38.950;2023-03-23T19:13:11;14.60;63.79
64638;HTU21D;51049;45.046;38.950;2023-03-23T19:15:38;14.59;63.78
64638;HTU21D;51049;45.046;38.950;2023-03-23T19:18:08;14.60;63.79
64638;HTU21D;51049;45.046;38.950;2023-03-23T19:20:40;14.59;63.79
64638;HTU21D;51049;45.046;38.950;2023-03-23T19:23:07;14.58;63.79
64638;HTU21D;51049;45.046;38.950;2023-03-23T19:25:37;14.57;63.82
64638;HTU21D;51049;45.046;38.950;2023-03-23T19:28:15;14.56;63.85
64638;HTU21D;51049;45.046;38.950;2023-03-23T19:30:46;14.58;63.83
64638;HTU21D;51049;45.046;38.950;2023-03-23T19:33:13;14.56;63.84
64638;HTU21D;51049;45.046;38.950;2023-03-23T19:35:51;14.56;63.87
64638;HTU21D;51049;45.046;38.950;2023-03-23T19:38:26;14.53;63.88
64638;HTU21D;51049;45.046;38.950;2023-03-23T19:40:58;14.52;63.85
64638;HTU21D;51049;45.046;38.950;2023-03-23T19:43:55;14.50;63.89
64638;HTU21D;51049;45.046;38.950;2023-03-23T19:46:24;14.48;63.91
64638;HTU21D;51049;45.046;38.950;2023-03-23T19:48:56;14.48;63.94
64638;HTU21D;51049;45.046;38.950;2023-03-23T19:51:52;14.44;63.96
64638;HTU21D;51049;45.046;38.950;2023-03-23T19:54:41;14.42;63.95
64638;HTU21D;51049;45.046;38.950;2023-03-23T19:57:18;14.41;63.95
64638;HTU21D;51049;45.046;38.950;2023-03-23T19:59:51;14.38;64.00
64638;HTU21D;51049;45.046;38.950;2023-03-23T20:02:23;14.37;64.03
64638;HTU21D;51049;45.046;38.950;2023-03-23T20:07:55;14.29;64.08
64638;HTU21D;51049;45.046;38.950;2023-03-23T20:10:21;14.26;64.13
64638;HTU21D;51049;45.046;38.950;2023-03-23T20:13:21;14.22;64.18
64638;HTU21D;51049;45.046;38.950;2023-03-23T20:15:51;14.20;64.23
64638;HTU21D;51049;45.046;38.950;2023-03-23T20:18:17;14.19;64.25
64638;HTU21D;51049;45.046;38.950;2023-03-23T20:20:43;14.17;64.29